Avon Park, Florida
Current Conditions -  °F | °C
As of 2:47 PM on Friday 28 Nov 2014 (Local Time) from KBOW Reporting Station
Clear Clear  
Wind Chill: 59°   Ceiling: Unl
Heat Index: 59°   Visibility: 10mi
Dew Point: 34°   Wind: 7mph
Humidity: 39%   Direction: 360°N
Pressure: 30.26"   Gusts: NA
Location:  27.6°N, 81.51°W
Report Text: KBOW 281947Z 36006KT 10SM SKC 15/01 A3026
Loading
Personal Weather Stations






























Interactive Weather Map New forecast layout! Learn more

10-Day Weather Forecast

Advertisements
Track Severe Weather on mobile